createdAt,value
2023-03-27T00:01:27.525Z,8.00
2023-03-27T00:03:55.681Z,7.40
2023-03-27T00:06:25.107Z,5.90
2023-03-27T00:08:52.371Z,6.80
2023-03-27T00:11:21.172Z,8.20
2023-03-27T00:13:51.320Z,5.90
2023-03-27T00:16:23.048Z,8.40
2023-03-27T00:18:50.048Z,7.10
2023-03-27T00:21:16.975Z,8.20
2023-03-27T00:23:43.944Z,8.40
2023-03-27T00:26:12.140Z,4.00
2023-03-27T00:28:39.370Z,7.20
2023-03-27T00:31:12.560Z,6.00
2023-03-27T00:33:39.718Z,6.00
2023-03-27T00:36:07.059Z,8.90
2023-03-27T00:38:34.044Z,6.00
2023-03-27T00:41:01.123Z,7.50
2023-03-27T00:43:45.041Z,8.60
2023-03-27T00:46:38.949Z,6.00
2023-03-27T00:49:06.782Z,8.40
2023-03-27T00:51:33.837Z,4.70
2023-03-27T00:54:00.939Z,8.80
2023-03-27T00:56:27.947Z,8.40
2023-03-27T00:59:02.325Z,7.70
2023-03-27T01:01:29.556Z,7.70
2023-03-27T01:03:58.487Z,7.90
2023-03-27T01:06:25.365Z,8.10
2023-03-27T01:08:52.936Z,5.90
2023-03-27T01:11:28.185Z,5.90
2023-03-27T01:14:08.234Z,6.90
2023-03-27T01:16:48.193Z,7.70
2023-03-27T01:19:40.026Z,5.90
2023-03-27T01:22:24.444Z,5.90
2023-03-27T01:25:30.076Z,5.90
2023-03-27T01:28:18.084Z,5.90
2023-03-27T01:30:49.068Z,5.90
2023-03-27T01:33:31.603Z,7.60
2023-03-27T01:37:05.699Z,8.00
2023-03-27T01:39:48.868Z,5.80
2023-03-27T01:42:32.712Z,5.80
2023-03-27T01:45:08.310Z,5.80
2023-03-27T01:47:43.839Z,5.90
2023-03-27T01:50:30.980Z,5.80
2023-03-27T01:53:25.506Z,5.80
2023-03-27T01:56:32.514Z,5.80
2023-03-27T01:59:11.289Z,5.80
2023-03-27T02:01:39.879Z,5.80
2023-03-27T02:04:08.790Z,7.30
2023-03-27T02:06:41.866Z,6.70
2023-03-27T02:09:20.521Z,5.80
2023-03-27T02:12:07.563Z,5.80
2023-03-27T02:14:43.704Z,5.80
2023-03-27T02:17:12.995Z,8.40
2023-03-27T02:19:47.514Z,8.30
2023-03-27T02:22:15.405Z,6.10
2023-03-27T02:24:46.605Z,5.80
2023-03-27T02:27:18.311Z,5.80
2023-03-27T02:29:59.943Z,7.80
2023-03-27T02:32:47.981Z,5.80
2023-03-27T02:35:46.443Z,5.80
2023-03-27T02:38:23.766Z,5.80
2023-03-27T02:41:14.398Z,6.20
2023-03-27T02:44:14.741Z,5.80
2023-03-27T02:47:09.370Z,5.80
2023-03-27T02:49:39.358Z,5.80
2023-03-27T02:52:36.463Z,7.60
2023-03-27T02:55:06.790Z,5.80
2023-03-27T02:57:39.151Z,5.80
2023-03-27T03:00:28.414Z,5.80
2023-03-27T03:03:30.493Z,5.80
2023-03-27T03:06:07.438Z,7.80
2023-03-27T03:08:38.709Z,5.80
2023-03-27T03:11:10.347Z,8.70
2023-03-27T03:13:37.438Z,8.00
2023-03-27T03:16:05.594Z,6.20
2023-03-27T03:18:33.609Z,5.90
2023-03-27T03:21:00.595Z,8.40
2023-03-27T03:23:27.778Z,7.10
2023-03-27T03:25:56.920Z,4.40
2023-03-27T03:28:27.592Z,7.60
2023-03-27T03:30:54.563Z,7.30
2023-03-27T03:33:22.385Z,5.80
2023-03-27T03:35:50.213Z,7.00
2023-03-27T03:38:37.880Z,5.80
2023-03-27T03:41:09.388Z,7.10
2023-03-27T03:43:36.332Z,5.80
2023-03-27T03:46:04.047Z,5.80
2023-03-27T03:48:31.036Z,5.70
2023-03-27T03:50:58.414Z,5.70
2023-03-27T03:53:26.244Z,5.60
2023-03-27T03:55:56.024Z,5.70
2023-03-27T03:58:34.852Z,8.10
2023-03-27T04:01:04.964Z,6.80
2023-03-27T04:03:39.169Z,5.70
2023-03-27T04:06:07.673Z,7.40
2023-03-27T04:08:35.043Z,5.70
2023-03-27T04:11:05.675Z,5.70
2023-03-27T04:13:57.450Z,5.70
2023-03-27T04:16:38.503Z,5.70
2023-03-27T04:19:20.451Z,5.70
2023-03-27T04:21:56.189Z,8.10
2023-03-27T04:24:24.092Z,4.70
2023-03-27T04:26:51.390Z,5.80
2023-03-27T04:29:34.254Z,7.10
2023-03-27T04:32:01.220Z,5.60
2023-03-27T04:34:40.986Z,6.00
2023-03-27T04:37:08.009Z,7.50
2023-03-27T04:39:42.784Z,7.70
2023-03-27T04:42:10.653Z,4.90
2023-03-27T04:44:40.322Z,7.30
2023-03-27T04:47:10.674Z,5.50
2023-03-27T04:49:39.599Z,7.80
2023-03-27T04:52:18.205Z,6.70
2023-03-27T04:54:45.266Z,8.20
2023-03-27T04:57:12.657Z,8.60
2023-03-27T04:59:39.506Z,7.60
2023-03-27T05:02:33.645Z,5.30
2023-03-27T05:05:06.229Z,8.40
2023-03-27T05:07:35.895Z,5.20
2023-03-27T05:10:05.189Z,5.10
2023-03-27T05:12:33.157Z,5.00
2023-03-27T05:15:06.117Z,5.00
2023-03-27T05:17:44.041Z,6.70
2023-03-27T05:20:14.447Z,7.80
2023-03-27T05:22:41.976Z,4.70
2023-03-27T05:25:21.672Z,4.70
2023-03-27T05:27:49.235Z,4.80
2023-03-27T05:30:21.680Z,6.00
2023-03-27T05:32:52.832Z,5.80
2023-03-27T05:35:28.653Z,4.50
2023-03-27T05:37:57.678Z,5.60
2023-03-27T05:40:34.709Z,5.60
2023-03-27T05:43:02.877Z,4.50
2023-03-27T05:45:32.427Z,4.60
2023-03-27T05:48:01.735Z,4.50
2023-03-27T05:50:32.639Z,5.90
2023-03-27T05:53:12.869Z,4.50
2023-03-27T05:55:47.740Z,4.50
2023-03-27T05:58:14.725Z,6.30
2023-03-27T06:00:42.812Z,4.40
2023-03-27T06:03:13.010Z,6.80
2023-03-27T06:06:07.092Z,4.50
2023-03-27T06:08:35.006Z,6.80
2023-03-27T06:11:12.676Z,4.40
2023-03-27T06:13:45.571Z,4.40
2023-03-27T06:16:20.673Z,4.50
2023-03-27T06:18:56.401Z,5.70
2023-03-27T06:21:24.860Z,4.40
2023-03-27T06:23:58.028Z,4.50
2023-03-27T06:26:28.402Z,7.30
2023-03-27T06:28:57.104Z,4.80
2023-03-27T06:31:24.505Z,6.70
2023-03-27T06:34:17.380Z,4.40
2023-03-27T06:36:50.172Z,4.50
2023-03-27T06:39:17.868Z,4.40
2023-03-27T06:41:52.682Z,4.40
2023-03-27T06:44:34.108Z,6.90
2023-03-27T06:47:44.388Z,4.30
2023-03-27T06:50:38.724Z,5.20
2023-03-27T06:53:10.054Z,4.40
2023-03-27T06:55:45.588Z,6.00
2023-03-27T06:58:18.551Z,4.90
2023-03-27T07:00:46.070Z,4.30
2023-03-27T07:03:20.286Z,6.00
2023-03-27T07:06:00.848Z,6.30
2023-03-27T07:08:34.049Z,5.50
2023-03-27T07:13:34.716Z,4.50
2023-03-27T07:16:05.869Z,4.40
2023-03-27T07:18:33.641Z,4.60
2023-03-27T07:21:00.777Z,6.30
2023-03-27T07:23:28.011Z,4.70
2023-03-27T07:26:01.813Z,4.70
2023-03-27T07:28:47.258Z,5.70
2023-03-27T07:31:32.558Z,4.70
2023-03-27T07:34:01.751Z,6.20
2023-03-27T07:36:49.159Z,5.70
2023-03-27T07:39:17.124Z,7.60
2023-03-27T07:41:44.363Z,4.60
2023-03-27T07:44:29.784Z,7.90
2023-03-27T07:47:06.937Z,4.60
2023-03-27T07:49:39.259Z,6.90
2023-03-27T07:52:11.208Z,5.40
2023-03-27T07:54:51.580Z,5.80
2023-03-27T07:57:21.838Z,4.60
2023-03-27T08:00:03.772Z,6.70
2023-03-27T08:02:43.213Z,4.70
2023-03-27T08:05:11.433Z,8.20
2023-03-27T08:07:40.785Z,6.40
2023-03-27T08:10:08.572Z,6.70
2023-03-27T08:12:48.128Z,4.90
2023-03-27T08:15:17.513Z,4.80
2023-03-27T08:17:45.709Z,6.20
2023-03-27T08:20:16.543Z,7.90
2023-03-27T08:22:47.511Z,6.60
2023-03-27T08:25:50.499Z,6.90
2023-03-27T08:28:21.040Z,5.00
2023-03-27T08:30:48.094Z,5.00
2023-03-27T08:33:15.000Z,5.00
2023-03-27T08:35:42.001Z,5.20
2023-03-27T08:38:23.718Z,5.20
2023-03-27T08:41:38.518Z,5.20
2023-03-27T08:44:14.862Z,5.30
2023-03-27T08:47:01.204Z,5.40
2023-03-27T08:49:33.148Z,5.40
2023-03-27T08:52:28.726Z,5.70
2023-03-27T08:55:00.309Z,5.70
2023-03-27T08:57:37.478Z,5.60
2023-03-27T09:00:21.342Z,8.60
2023-03-27T09:02:58.760Z,5.60
2023-03-27T09:05:44.720Z,5.70
2023-03-27T09:08:36.043Z,5.80
2023-03-27T09:11:27.867Z,5.80
2023-03-27T09:13:59.635Z,8.60
2023-03-27T09:16:36.263Z,6.00
2023-03-27T09:19:14.528Z,9.20
2023-03-27T09:21:44.666Z,8.70
2023-03-27T09:24:36.599Z,8.30
2023-03-27T09:27:32.703Z,6.30
2023-03-27T09:30:19.333Z,6.40
2023-03-27T09:32:56.036Z,8.00
2023-03-27T09:35:23.374Z,8.70
2023-03-27T09:38:01.291Z,7.20
2023-03-27T09:40:33.655Z,6.00
2023-03-27T09:43:11.489Z,6.10
2023-03-27T09:45:40.816Z,8.60
2023-03-27T09:48:14.435Z,6.80
2023-03-27T09:50:46.187Z,6.00
2023-03-27T09:53:32.139Z,8.00
2023-03-27T09:56:14.455Z,5.80
2023-03-27T09:58:46.967Z,5.80
2023-03-27T10:01:15.916Z,5.70
2023-03-27T10:03:52.694Z,8.30
2023-03-27T10:06:48.651Z,8.00
2023-03-27T10:09:32.149Z,5.50
2023-03-27T10:12:15.816Z,8.00
2023-03-27T10:14:47.698Z,5.40
2023-03-27T10:17:35.288Z,5.30
2023-03-27T10:20:19.443Z,5.30
2023-03-27T10:23:00.018Z,7.50
2023-03-27T10:25:34.223Z,5.20
2023-03-27T10:28:30.577Z,5.20
2023-03-27T10:31:34.844Z,5.30
2023-03-27T10:34:08.379Z,5.30
2023-03-27T10:37:21.190Z,7.60
2023-03-27T10:39:55.030Z,5.30
2023-03-27T10:42:32.801Z,5.30
2023-03-27T10:45:02.140Z,5.30
2023-03-27T10:47:31.708Z,7.80
2023-03-27T10:50:06.902Z,7.40
2023-03-27T10:52:49.997Z,5.40
2023-03-27T10:55:55.780Z,6.60
2023-03-27T10:58:25.989Z,5.80
2023-03-27T11:00:58.711Z,9.10
2023-03-27T11:03:31.178Z,8.30
2023-03-27T11:06:04.091Z,7.40
2023-03-27T11:08:40.344Z,6.50
2023-03-27T11:11:12.990Z,6.70
2023-03-27T11:13:46.445Z,8.10
2023-03-27T11:16:37.421Z,8.90
2023-03-27T11:20:00.275Z,6.40
2023-03-27T11:22:32.900Z,6.20
2023-03-27T11:25:41.038Z,6.30
2023-03-27T11:28:26.952Z,6.50
2023-03-27T11:31:12.176Z,6.60
2023-03-27T11:33:45.894Z,6.60
2023-03-27T11:36:46.763Z,7.90
2023-03-27T11:39:42.108Z,6.50
2023-03-27T11:42:17.591Z,6.50
2023-03-27T11:44:46.469Z,7.80
2023-03-27T11:47:59.314Z,6.70
2023-03-27T11:50:32.558Z,6.80
2023-03-27T11:53:05.313Z,10.10
2023-03-27T11:56:14.173Z,6.90
2023-03-27T11:59:05.010Z,7.00
2023-03-27T12:01:37.666Z,7.10
2023-03-27T12:04:40.962Z,9.60
2023-03-27T12:07:26.328Z,7.10
2023-03-27T12:10:18.161Z,7.00
2023-03-27T12:13:42.526Z,7.00
2023-03-27T12:16:36.442Z,7.00
2023-03-27T12:19:28.406Z,5.40
2023-03-27T12:22:39.653Z,7.10
2023-03-27T12:25:49.338Z,7.10
2023-03-27T12:28:50.542Z,7.00
2023-03-27T12:32:04.195Z,7.00
2023-03-27T12:34:49.996Z,7.00
2023-03-27T12:37:18.704Z,7.10
2023-03-27T12:39:51.899Z,10.30
2023-03-27T12:42:43.577Z,7.30
2023-03-27T12:45:14.530Z,7.40
2023-03-27T12:48:10.637Z,7.40
2023-03-27T12:50:44.438Z,7.60
2023-03-27T12:53:27.183Z,7.70
2023-03-27T12:56:19.675Z,8.80
2023-03-27T12:58:51.532Z,8.70
2023-03-27T13:01:51.557Z,9.70
2023-03-27T13:05:02.632Z,7.90
2023-03-27T13:07:52.776Z,7.80
2023-03-27T13:10:47.495Z,7.60
2023-03-27T13:13:58.937Z,7.50
2023-03-27T13:16:31.726Z,7.40
2023-03-27T13:19:16.755Z,7.40
2023-03-27T13:22:33.219Z,7.40
2023-03-27T13:25:17.650Z,7.60
2023-03-27T13:28:04.456Z,11.00
2023-03-27T13:30:51.947Z,8.80
2023-03-27T13:33:47.691Z,8.10
2023-03-27T13:36:29.633Z,8.20
2023-03-27T13:38:57.189Z,8.10
2023-03-27T13:41:46.322Z,9.00
2023-03-27T13:44:36.116Z,8.10
2023-03-27T13:47:26.423Z,8.10
2023-03-27T13:50:14.862Z,8.00
2023-03-27T13:53:03.101Z,7.90
2023-03-27T13:56:28.105Z,7.90
2023-03-27T13:59:38.742Z,7.90
2023-03-27T14:02:49.054Z,8.00
2023-03-27T14:05:46.770Z,8.00
2023-03-27T14:08:38.770Z,8.00
2023-03-27T14:11:45.620Z,8.00
2023-03-27T14:14:28.442Z,8.00
2023-03-27T14:17:16.454Z,8.00
2023-03-27T14:20:11.589Z,7.90
2023-03-27T14:22:56.843Z,7.80
2023-03-27T14:25:34.378Z,7.80
2023-03-27T14:28:31.646Z,7.80
2023-03-27T14:31:03.299Z,7.90
2023-03-27T14:34:01.045Z,10.30
2023-03-27T14:36:30.679Z,8.20
2023-03-27T14:39:16.186Z,11.20
2023-03-27T14:41:53.548Z,10.80
2023-03-27T14:44:20.542Z,8.70
2023-03-27T14:46:48.308Z,8.70
2023-03-27T14:49:19.557Z,9.40
2023-03-27T14:51:53.478Z,8.50
2023-03-27T14:54:54.408Z,11.10
2023-03-27T14:57:25.901Z,9.20
2023-03-27T14:59:56.372Z,8.70
2023-03-27T15:02:34.847Z,10.40
2023-03-27T15:05:12.139Z,9.80
2023-03-27T15:07:43.965Z,11.00
2023-03-27T15:10:22.300Z,10.70
2023-03-27T15:12:58.394Z,8.40
2023-03-27T15:15:30.964Z,10.60
2023-03-27T15:18:00.055Z,10.20
2023-03-27T15:20:30.446Z,8.10
2023-03-27T15:23:19.264Z,8.00
2023-03-27T15:26:01.506Z,7.80
2023-03-27T15:28:49.939Z,7.70
2023-03-27T15:31:16.953Z,7.60
2023-03-27T15:34:03.409Z,7.50
2023-03-27T15:36:34.296Z,7.50
2023-03-27T15:39:01.588Z,10.00
2023-03-27T15:41:38.455Z,7.80
2023-03-27T15:44:09.064Z,7.40
2023-03-27T15:46:47.071Z,10.40
2023-03-27T15:49:32.169Z,7.50
2023-03-27T15:52:00.269Z,7.50
2023-03-27T15:54:31.374Z,7.50
2023-03-27T15:57:10.351Z,8.40
2023-03-27T15:59:52.451Z,9.90
2023-03-27T16:02:20.996Z,9.60
2023-03-27T16:04:53.569Z,9.80
2023-03-27T16:07:42.472Z,8.50
2023-03-27T16:10:10.159Z,7.60
2023-03-27T16:12:42.970Z,9.10
2023-03-27T16:15:28.851Z,7.80
2023-03-27T16:17:57.196Z,7.80
2023-03-27T16:20:24.005Z,10.10
2023-03-27T16:22:51.685Z,7.80
2023-03-27T16:25:18.677Z,7.50
2023-03-27T16:27:50.309Z,7.40
2023-03-27T16:30:35.902Z,9.20
2023-03-27T16:33:03.439Z,8.90
2023-03-27T16:35:32.506Z,9.30
2023-03-27T16:37:59.706Z,8.00
2023-03-27T16:40:27.325Z,6.90
2023-03-27T16:42:54.188Z,6.70
2023-03-27T16:45:21.022Z,6.70
2023-03-27T16:47:51.574Z,6.70
2023-03-27T16:50:21.844Z,7.50
2023-03-27T16:52:48.874Z,9.10
2023-03-27T16:55:15.781Z,8.90
2023-03-27T16:57:42.824Z,6.60
2023-03-27T17:00:11.720Z,8.60
2023-03-27T17:02:38.664Z,7.00
2023-03-27T17:05:06.872Z,6.60
2023-03-27T17:07:33.933Z,6.60
2023-03-27T17:10:01.165Z,8.40
2023-03-27T17:12:29.114Z,8.30
2023-03-27T17:14:56.569Z,8.40
2023-03-27T17:17:27.621Z,6.40
2023-03-27T17:19:57.200Z,6.40
2023-03-27T17:22:26.464Z,8.20
2023-03-27T17:24:57.154Z,8.90
2023-03-27T17:27:28.745Z,6.50
2023-03-27T17:29:58.251Z,7.60
2023-03-27T17:32:26.202Z,8.00
2023-03-27T17:34:53.431Z,7.60
2023-03-27T17:37:21.030Z,5.90
2023-03-27T17:39:48.170Z,7.40
2023-03-27T17:42:15.410Z,5.60
2023-03-27T17:44:42.768Z,5.60
2023-03-27T17:47:09.614Z,8.70
2023-03-27T17:49:36.989Z,6.70
2023-03-27T17:52:11.192Z,5.30
2023-03-27T17:54:38.621Z,7.30
2023-03-27T17:57:05.926Z,5.10
2023-03-27T17:59:32.924Z,6.90
2023-03-27T18:01:59.906Z,5.30
2023-03-27T18:04:26.746Z,6.30
2023-03-27T18:06:53.631Z,7.30
2023-03-27T18:09:20.517Z,4.70
2023-03-27T18:11:47.521Z,4.60
2023-03-27T18:14:14.451Z,6.50
2023-03-27T18:16:41.312Z,4.50
2023-03-27T18:19:09.118Z,5.00
2023-03-27T18:21:36.258Z,4.40
2023-03-27T18:24:03.550Z,5.80
2023-03-27T18:26:30.645Z,4.30
2023-03-27T18:28:57.895Z,5.90
2023-03-27T18:31:25.171Z,4.20
2023-03-27T18:33:52.561Z,4.20
2023-03-27T18:36:19.489Z,7.20
2023-03-27T18:38:49.520Z,4.50
2023-03-27T18:41:16.807Z,4.10
2023-03-27T18:43:43.664Z,6.50
2023-03-27T18:46:16.412Z,4.00
2023-03-27T18:48:44.325Z,3.90
2023-03-27T18:51:11.147Z,4.00
2023-03-27T18:53:38.174Z,5.50
2023-03-27T18:56:05.489Z,3.90
2023-03-27T18:58:32.494Z,3.90
2023-03-27T19:00:59.965Z,3.80
2023-03-27T19:03:30.297Z,3.70
2023-03-27T19:06:00.164Z,4.70
2023-03-27T19:08:27.016Z,2.10
2023-03-27T19:10:57.676Z,4.10
2023-03-27T19:13:43.313Z,6.40
2023-03-27T19:16:16.892Z,3.70
2023-03-27T19:19:09.978Z,4.50
2023-03-27T19:21:59.409Z,4.70
2023-03-27T19:24:52.056Z,6.30
2023-03-27T19:27:23.638Z,5.40
2023-03-27T19:29:52.343Z,3.50
2023-03-27T19:32:19.310Z,6.30
2023-03-27T19:34:46.230Z,3.50
2023-03-27T19:37:13.084Z,5.70
2023-03-27T19:39:40.441Z,5.00
2023-03-27T19:42:07.365Z,3.40
2023-03-27T19:44:38.058Z,5.30
2023-03-27T19:47:07.438Z,5.30
2023-03-27T19:49:40.869Z,3.30
2023-03-27T19:52:30.733Z,3.40
2023-03-27T19:54:58.489Z,5.10
2023-03-27T19:57:25.374Z,3.50
2023-03-27T19:59:53.014Z,3.50
2023-03-27T20:02:19.883Z,3.40
2023-03-27T20:04:48.830Z,6.20
2023-03-27T20:07:16.291Z,6.20
2023-03-27T20:09:43.373Z,6.10
2023-03-27T20:12:12.250Z,2.20
2023-03-27T20:14:39.850Z,3.20
2023-03-27T20:17:12.136Z,3.50
2023-03-27T20:19:51.330Z,3.40
2023-03-27T20:22:20.583Z,1.80
2023-03-27T20:24:48.628Z,3.60
2023-03-27T20:27:15.843Z,4.30
2023-03-27T20:29:42.686Z,5.20
2023-03-27T20:32:09.829Z,3.40
2023-03-27T20:34:36.749Z,3.40
2023-03-27T20:37:11.914Z,3.40
2023-03-27T20:40:11.616Z,3.50
2023-03-27T20:42:46.841Z,3.50
2023-03-27T20:45:19.288Z,3.40
2023-03-27T20:47:47.453Z,3.50
2023-03-27T20:50:15.070Z,3.50
2023-03-27T20:52:42.450Z,3.50
2023-03-27T20:55:11.972Z,3.40
2023-03-27T20:57:42.913Z,3.50
2023-03-27T21:00:11.181Z,3.50
2023-03-27T21:02:38.319Z,3.50
2023-03-27T21:05:06.432Z,6.60
2023-03-27T21:07:34.221Z,5.50
2023-03-27T21:10:01.208Z,3.50
2023-03-27T21:12:28.042Z,3.50
2023-03-27T21:14:54.920Z,5.10
2023-03-27T21:17:24.629Z,5.30
2023-03-27T21:19:51.439Z,3.50
2023-03-27T21:22:18.293Z,3.50
2023-03-27T21:24:45.301Z,3.50
2023-03-27T21:27:12.624Z,6.20
2023-03-27T21:29:41.349Z,3.60
2023-03-27T21:32:09.186Z,3.60
2023-03-27T21:34:36.220Z,3.60
2023-03-27T21:37:03.072Z,5.60
2023-03-27T21:39:29.927Z,3.50
2023-03-27T21:41:56.823Z,3.50
2023-03-27T21:44:23.651Z,3.50
2023-03-27T21:46:50.638Z,4.90
2023-03-27T21:49:17.873Z,3.60
2023-03-27T21:51:44.947Z,5.70
2023-03-27T21:54:11.852Z,3.50
2023-03-27T21:56:38.714Z,3.60
2023-03-27T21:59:05.636Z,3.50
2023-03-27T22:01:32.577Z,3.50
2023-03-27T22:04:02.230Z,3.50
2023-03-27T22:06:29.298Z,3.50
2023-03-27T22:08:56.449Z,3.50
2023-03-27T22:11:23.298Z,3.50
2023-03-27T22:13:50.212Z,3.50
2023-03-27T22:16:17.531Z,3.50
2023-03-27T22:18:44.537Z,3.50
2023-03-27T22:21:19.488Z,3.50
2023-03-27T22:23:46.509Z,6.30
2023-03-27T22:26:13.364Z,3.30
2023-03-27T22:28:40.287Z,3.30
2023-03-27T22:31:07.507Z,3.20
2023-03-27T22:33:35.063Z,3.10
2023-03-27T22:36:02.182Z,3.10
2023-03-27T22:38:30.554Z,5.80
2023-03-27T22:40:57.829Z,6.40
2023-03-27T22:43:24.858Z,3.00
2023-03-27T22:45:52.431Z,3.00
2023-03-27T22:48:19.545Z,3.00
2023-03-27T22:50:56.505Z,2.90
2023-03-27T22:53:23.888Z,3.00
2023-03-27T22:55:51.528Z,3.10
2023-03-27T22:58:18.521Z,4.00
2023-03-27T23:00:49.029Z,2.90
2023-03-27T23:03:16.081Z,2.90
2023-03-27T23:05:44.285Z,2.80
2023-03-27T23:08:11.234Z,2.90
2023-03-27T23:10:38.184Z,2.90
2023-03-27T23:13:05.108Z,2.90
2023-03-27T23:15:31.901Z,2.80
2023-03-27T23:17:58.935Z,2.90
2023-03-27T23:20:27.238Z,4.10
2023-03-27T23:22:54.261Z,2.90
2023-03-27T23:25:21.148Z,4.50
2023-03-27T23:27:47.969Z,4.70
2023-03-27T23:30:14.989Z,2.80
2023-03-27T23:32:41.783Z,2.80
2023-03-27T23:35:10.713Z,3.70
2023-03-27T23:37:37.522Z,2.70
2023-03-27T23:40:04.780Z,2.70
2023-03-27T23:42:31.643Z,2.70
2023-03-27T23:44:58.429Z,2.60
2023-03-27T23:47:25.387Z,2.60
2023-03-27T23:49:52.246Z,2.60
2023-03-27T23:52:19.044Z,2.50
2023-03-27T23:54:46.001Z,2.50
2023-03-27T23:57:12.774Z,3.80
2023-03-27T23:59:39.612Z,2.50
